Meknes, Morocco
Current Conditions -  °F | °C
As of 2:00 PM on Wednesday 26 Nov 2014 (Local Time) from GMFM Reporting Station
Scattered Clouds Scattered Clouds  
Wind Chill: 63°   Ceiling: Unl
Heat Index: 63°   Visibility: 6mi
Dew Point: 48°   Wind: 7mph
Humidity: 59%   Direction: 270°W
Pressure: 29.94"   Gusts: NA
Location:  33.9°N, 5.56°W
Report Text: GMFM 261300Z 27006KT 9999 SCT020TCU SCT023 17/09 Q1014 NOSIG
Loading
Personal Weather Stations






























Interactive Weather Map New forecast layout! Learn more

10-Day Weather Forecast

Advertisements
Track Severe Weather on mobile